createdAt,value
2023-09-21T00:01:08.741Z,4.67
2023-09-21T00:03:36.839Z,4.93
2023-09-21T00:06:05.351Z,4.70
2023-09-21T00:08:33.136Z,5.70
2023-09-21T00:11:00.327Z,5.33
2023-09-21T00:13:32.563Z,4.40
2023-09-21T00:16:01.148Z,4.40
2023-09-21T00:18:28.790Z,5.17
2023-09-21T00:20:55.948Z,5.20
2023-09-21T00:23:25.379Z,5.70
2023-09-21T00:25:56.292Z,6.90
2023-09-21T00:28:23.316Z,4.67
2023-09-21T00:30:58.512Z,4.53
2023-09-21T00:33:29.365Z,4.47
2023-09-21T00:35:59.443Z,4.67
2023-09-21T00:38:27.930Z,4.80
2023-09-21T00:40:59.811Z,4.33
2023-09-21T00:43:26.816Z,4.20
2023-09-21T00:45:55.355Z,4.43
2023-09-21T00:48:27.267Z,4.20
2023-09-21T00:50:59.326Z,4.80
2023-09-21T00:53:31.390Z,3.80
2023-09-21T00:56:09.705Z,4.07
2023-09-21T00:58:47.249Z,4.03
2023-09-21T01:01:24.739Z,4.33
2023-09-21T01:03:57.069Z,4.30
2023-09-21T01:06:24.855Z,5.13
2023-09-21T01:08:52.630Z,4.37
2023-09-21T01:11:20.953Z,4.43
2023-09-21T01:13:50.650Z,5.90
2023-09-21T01:16:19.084Z,5.63
2023-09-21T01:18:48.693Z,4.67
2023-09-21T01:21:22.580Z,5.13
2023-09-21T01:23:51.394Z,5.67
2023-09-21T01:26:19.657Z,7.03
2023-09-21T01:28:48.659Z,5.90
2023-09-21T01:31:17.026Z,7.10
2023-09-21T01:33:44.518Z,5.63
2023-09-21T01:36:13.524Z,6.63
2023-09-21T01:38:46.617Z,5.43
2023-09-21T01:41:15.343Z,6.13
2023-09-21T01:43:42.234Z,5.90
2023-09-21T01:46:10.334Z,5.27
2023-09-21T01:48:38.289Z,5.50
2023-09-21T01:51:06.843Z,6.60
2023-09-21T01:53:34.122Z,6.33
2023-09-21T01:56:01.240Z,6.33
2023-09-21T01:58:28.188Z,6.27
2023-09-21T02:00:55.049Z,6.10
2023-09-21T02:03:29.157Z,6.07
2023-09-21T02:05:59.530Z,5.70
2023-09-21T02:08:27.264Z,6.90
2023-09-21T02:10:54.765Z,7.30
2023-09-21T02:13:21.918Z,5.73
2023-09-21T02:15:52.541Z,5.43
2023-09-21T02:18:20.793Z,6.57
2023-09-21T02:20:55.578Z,6.17
2023-09-21T02:23:23.697Z,6.03
2023-09-21T02:25:53.240Z,6.47
2023-09-21T02:28:22.189Z,6.07
2023-09-21T02:30:49.996Z,5.90
2023-09-21T02:33:17.591Z,6.83
2023-09-21T02:35:46.085Z,6.10
2023-09-21T02:38:13.895Z,5.30
2023-09-21T02:40:42.146Z,7.07
2023-09-21T02:43:09.609Z,6.70
2023-09-21T02:45:38.330Z,6.30
2023-09-21T02:48:06.846Z,5.27
2023-09-21T02:50:34.222Z,5.70
2023-09-21T02:53:09.741Z,6.80
2023-09-21T02:55:38.338Z,5.43
2023-09-21T02:58:14.254Z,5.73
2023-09-21T03:00:46.858Z,5.93
2023-09-21T03:03:15.984Z,5.70
2023-09-21T03:05:49.196Z,5.90
2023-09-21T03:08:17.709Z,8.70
2023-09-21T03:10:48.641Z,5.60
2023-09-21T03:13:19.992Z,5.73
2023-09-21T03:15:48.842Z,6.40
2023-09-21T03:18:17.524Z,7.10
2023-09-21T03:20:45.721Z,5.20
2023-09-21T03:23:14.840Z,5.50
2023-09-21T03:25:46.458Z,5.67
2023-09-21T03:28:15.028Z,5.53
2023-09-21T03:30:43.739Z,5.87
2023-09-21T03:33:11.544Z,6.93
2023-09-21T03:35:39.282Z,6.57
2023-09-21T03:38:20.551Z,8.67
2023-09-21T03:40:52.507Z,6.10
2023-09-21T03:43:20.793Z,4.83
2023-09-21T03:45:48.500Z,6.00
2023-09-21T03:48:17.449Z,5.07
2023-09-21T03:50:45.064Z,5.40
2023-09-21T03:53:12.145Z,6.50
2023-09-21T03:55:40.518Z,5.57
2023-09-21T03:58:08.980Z,5.77
2023-09-21T04:00:47.562Z,5.50
2023-09-21T04:03:14.743Z,5.30
2023-09-21T04:05:43.691Z,4.90
2023-09-21T04:08:11.126Z,4.50
2023-09-21T04:10:38.295Z,6.20
2023-09-21T04:13:06.995Z,5.20
2023-09-21T04:15:34.737Z,5.33
2023-09-21T04:18:04.083Z,5.20
2023-09-21T04:20:36.503Z,12.63
2023-09-21T04:23:04.589Z,5.90
2023-09-21T04:25:31.999Z,8.83
2023-09-21T04:27:58.768Z,5.10
2023-09-21T04:30:26.021Z,4.93
2023-09-21T04:32:55.028Z,8.93
2023-09-21T04:35:24.402Z,6.23
2023-09-21T04:37:59.794Z,6.43
2023-09-21T04:40:27.579Z,7.53
2023-09-21T04:42:56.101Z,6.00
2023-09-21T04:45:23.437Z,5.33
2023-09-21T04:47:53.834Z,7.10
2023-09-21T04:50:20.772Z,5.30
2023-09-21T04:52:51.029Z,6.03
2023-09-21T04:55:18.513Z,8.97
2023-09-21T04:57:46.176Z,6.83
2023-09-21T05:00:15.563Z,7.30
2023-09-21T05:02:44.292Z,6.90
2023-09-21T05:05:12.187Z,6.97
2023-09-21T05:07:39.256Z,6.70
2023-09-21T05:10:08.444Z,6.27
2023-09-21T05:12:35.825Z,6.70
2023-09-21T05:15:09.549Z,9.07
2023-09-21T05:17:40.800Z,9.90
2023-09-21T05:20:10.878Z,5.57
2023-09-21T05:22:41.668Z,9.50
2023-09-21T05:25:09.204Z,5.70
2023-09-21T05:27:40.243Z,7.70
2023-09-21T05:30:10.674Z,7.40
2023-09-21T05:32:39.112Z,6.63
2023-09-21T05:35:07.612Z,5.10
2023-09-21T05:37:38.183Z,8.30
2023-09-21T05:40:07.920Z,5.00
2023-09-21T05:42:35.519Z,5.50
2023-09-21T05:45:02.590Z,7.90
2023-09-21T05:47:29.695Z,4.57
2023-09-21T05:49:56.638Z,5.20
2023-09-21T05:52:25.788Z,6.40
2023-09-21T05:54:53.322Z,5.13
2023-09-21T05:57:20.530Z,5.70
2023-09-21T05:59:47.976Z,5.50
2023-09-21T06:02:15.557Z,7.80
2023-09-21T06:04:45.620Z,5.60
2023-09-21T06:07:12.850Z,5.90
2023-09-21T06:09:40.591Z,6.20
2023-09-21T06:12:12.427Z,5.90
2023-09-21T06:14:39.816Z,5.83
2023-09-21T06:17:07.963Z,4.90
2023-09-21T06:19:35.655Z,6.40
2023-09-21T06:22:04.356Z,5.00
2023-09-21T06:24:32.845Z,4.97
2023-09-21T06:26:59.897Z,5.77
2023-09-21T06:29:27.042Z,6.13
2023-09-21T06:32:09.447Z,4.90
2023-09-21T06:34:42.658Z,5.67
2023-09-21T06:37:10.044Z,5.50
2023-09-21T06:39:37.009Z,5.00
2023-09-21T06:42:04.319Z,6.40
2023-09-21T06:44:31.156Z,6.40
2023-09-21T06:46:58.266Z,6.70
2023-09-21T06:49:27.690Z,5.73
2023-09-21T06:51:55.442Z,5.80
2023-09-21T06:54:24.606Z,8.27
2023-09-21T06:56:51.589Z,6.57
2023-09-21T06:59:18.519Z,5.83
2023-09-21T07:01:45.401Z,7.80
2023-09-21T07:04:12.550Z,5.90
2023-09-21T07:06:40.839Z,6.80
2023-09-21T07:09:08.183Z,8.20
2023-09-21T07:11:35.153Z,6.17
2023-09-21T07:14:02.034Z,6.30
2023-09-21T07:16:29.472Z,6.30
2023-09-21T07:18:56.494Z,7.20
2023-09-21T07:21:23.441Z,7.40
2023-09-21T07:23:50.687Z,6.47
2023-09-21T07:26:17.732Z,5.83
2023-09-21T07:28:45.798Z,7.10
2023-09-21T07:31:13.442Z,6.70
2023-09-21T07:33:40.616Z,6.40
2023-09-21T07:36:07.642Z,6.20
2023-09-21T07:38:34.561Z,6.50
2023-09-21T07:41:01.632Z,7.03
2023-09-21T07:43:29.759Z,6.80
2023-09-21T07:45:58.438Z,6.27
2023-09-21T07:48:27.931Z,10.30
2023-09-21T07:50:57.527Z,6.40
2023-09-21T07:53:24.421Z,7.47
2023-09-21T07:56:07.353Z,6.90
2023-09-21T07:58:34.598Z,9.33
2023-09-21T08:01:01.964Z,6.97
2023-09-21T08:03:28.934Z,8.23
2023-09-21T08:05:56.669Z,7.67
2023-09-21T08:08:27.860Z,7.60
2023-09-21T08:10:54.961Z,8.23
2023-09-21T08:13:22.137Z,9.70
2023-09-21T08:15:49.532Z,7.67
2023-09-21T08:18:16.892Z,9.13
2023-09-21T08:20:43.773Z,7.63
2023-09-21T08:23:10.927Z,9.03
2023-09-21T08:25:38.995Z,7.90
2023-09-21T08:28:06.270Z,7.10
2023-09-21T08:30:35.429Z,6.53
2023-09-21T08:33:04.808Z,7.70
2023-09-21T08:35:32.716Z,8.70
2023-09-21T08:38:00.096Z,5.90
2023-09-21T08:40:27.329Z,7.50
2023-09-21T08:42:54.823Z,6.53
2023-09-21T08:45:24.622Z,8.50
2023-09-21T08:47:51.988Z,9.27
2023-09-21T08:50:19.774Z,8.53
2023-09-21T08:52:49.459Z,8.67
2023-09-21T08:55:17.966Z,5.90
2023-09-21T08:57:45.027Z,6.27
2023-09-21T09:00:13.591Z,5.97
2023-09-21T09:02:40.740Z,7.40
2023-09-21T09:05:09.497Z,6.23
2023-09-21T09:07:44.650Z,5.33
2023-09-21T09:10:13.156Z,4.67
2023-09-21T09:12:42.369Z,7.50
2023-09-21T09:15:11.400Z,5.63
2023-09-21T09:17:38.851Z,5.33
2023-09-21T09:20:07.552Z,4.10
2023-09-21T09:22:39.201Z,4.70
2023-09-21T09:25:13.226Z,5.33
2023-09-21T09:27:42.981Z,5.00
2023-09-21T09:30:13.039Z,14.63
2023-09-21T09:32:43.719Z,5.47
2023-09-21T09:35:15.528Z,6.47
2023-09-21T09:37:44.077Z,5.53
2023-09-21T09:40:15.843Z,4.00
2023-09-21T09:42:44.572Z,4.70
2023-09-21T09:45:29.678Z,5.73
2023-09-21T09:47:58.334Z,5.17
2023-09-21T09:50:26.700Z,8.17
2023-09-21T09:53:06.863Z,6.97
2023-09-21T09:55:37.080Z,4.53
2023-09-21T09:58:04.934Z,3.40
2023-09-21T10:00:32.562Z,4.00
2023-09-21T10:03:00.106Z,5.47
2023-09-21T10:05:28.865Z,5.53
2023-09-21T10:08:04.823Z,4.20
2023-09-21T10:10:52.952Z,3.90
2023-09-21T10:13:20.662Z,4.63
2023-09-21T10:15:58.780Z,3.60
2023-09-21T10:18:39.298Z,3.97
2023-09-21T10:21:24.991Z,3.23
2023-09-21T10:24:03.980Z,7.13
2023-09-21T10:26:39.896Z,2.80
2023-09-21T10:29:08.384Z,3.23
2023-09-21T10:31:43.538Z,2.67
2023-09-21T10:34:23.397Z,2.70
2023-09-21T10:36:56.665Z,3.30
2023-09-21T10:39:31.042Z,2.60
2023-09-21T10:42:19.149Z,3.50
2023-09-21T10:45:02.094Z,2.80
2023-09-21T10:47:38.155Z,3.03
2023-09-21T10:50:13.283Z,3.57
2023-09-21T10:52:58.898Z,9.53
2023-09-21T10:55:26.514Z,4.13
2023-09-21T10:57:54.903Z,4.60
2023-09-21T11:00:23.497Z,2.90
2023-09-21T11:02:51.869Z,4.00
2023-09-21T11:05:20.650Z,3.57
2023-09-21T11:07:51.944Z,4.53
2023-09-21T11:10:19.023Z,4.10
2023-09-21T11:12:46.679Z,5.57
2023-09-21T11:15:15.999Z,4.70
2023-09-21T11:17:47.855Z,3.37
2023-09-21T11:20:19.190Z,4.20
2023-09-21T11:22:49.122Z,2.10
2023-09-21T11:25:21.779Z,3.40
2023-09-21T11:27:49.834Z,4.47
2023-09-21T11:30:17.520Z,2.60
2023-09-21T11:32:47.922Z,4.37
2023-09-21T11:35:20.137Z,3.30
2023-09-21T11:37:51.763Z,2.83
2023-09-21T11:40:23.422Z,4.30
2023-09-21T11:42:52.439Z,3.70
2023-09-21T11:45:22.277Z,4.63
2023-09-21T11:47:50.421Z,7.00
2023-09-21T11:50:27.275Z,4.33
2023-09-21T11:52:56.087Z,2.57
2023-09-21T11:55:31.165Z,2.37
2023-09-21T11:58:12.456Z,3.13
2023-09-21T12:00:51.545Z,2.40
2023-09-21T12:03:26.080Z,3.97
2023-09-21T12:05:56.973Z,1.47
2023-09-21T12:08:28.091Z,2.97
2023-09-21T12:10:55.260Z,1.97
2023-09-21T12:13:23.147Z,3.10
2023-09-21T12:15:53.784Z,2.30
2023-09-21T12:18:22.660Z,4.07
2023-09-21T12:20:58.319Z,3.10
2023-09-21T12:23:26.356Z,2.63
2023-09-21T12:25:56.900Z,3.00
2023-09-21T12:28:24.068Z,3.83
2023-09-21T12:30:53.333Z,1.80
2023-09-21T12:35:50.981Z,2.40
2023-09-21T12:38:18.109Z,4.10
2023-09-21T12:40:46.152Z,3.20
2023-09-21T12:43:12.984Z,4.27
2023-09-21T12:45:39.969Z,2.90
2023-09-21T12:48:08.985Z,2.90
2023-09-21T12:50:36.355Z,2.33
2023-09-21T12:53:07.148Z,2.30
2023-09-21T12:55:35.753Z,2.80
2023-09-21T12:58:03.043Z,1.90
2023-09-21T13:00:30.656Z,2.67
2023-09-21T13:02:58.703Z,3.87
2023-09-21T13:05:25.911Z,2.80
2023-09-21T13:07:53.770Z,4.03
2023-09-21T13:10:20.891Z,2.43
2023-09-21T13:12:48.488Z,2.97
2023-09-21T13:15:15.875Z,2.67
2023-09-21T13:17:42.939Z,2.83
2023-09-21T13:20:18.047Z,2.33
2023-09-21T13:22:45.756Z,2.37
2023-09-21T13:25:13.682Z,2.90
2023-09-21T13:27:41.110Z,2.80
2023-09-21T13:30:09.245Z,3.50
2023-09-21T13:32:36.739Z,3.97
2023-09-21T13:35:04.975Z,3.43
2023-09-21T13:37:33.627Z,3.10
2023-09-21T13:40:00.748Z,2.57
2023-09-21T13:42:31.428Z,2.40
2023-09-21T13:44:58.593Z,2.70
2023-09-21T13:47:26.555Z,2.40
2023-09-21T13:49:53.537Z,2.33
2023-09-21T13:52:20.564Z,2.70
2023-09-21T13:54:50.373Z,2.40
2023-09-21T13:57:21.174Z,3.70
2023-09-21T13:59:48.113Z,4.83
2023-09-21T14:02:15.168Z,1.73
2023-09-21T14:04:42.987Z,4.00
2023-09-21T14:07:10.004Z,2.13
2023-09-21T14:09:36.902Z,3.33
2023-09-21T14:12:05.385Z,2.03
2023-09-21T14:14:32.300Z,4.60
2023-09-21T14:16:59.272Z,2.17
2023-09-21T14:19:26.138Z,2.30
2023-09-21T14:21:53.366Z,1.83
2023-09-21T14:24:21.872Z,2.33
2023-09-21T14:26:49.070Z,2.10
2023-09-21T14:54:57.854Z,3.10
2023-09-21T14:57:25.973Z,3.20
2023-09-21T14:59:52.903Z,1.57
2023-09-21T15:02:19.853Z,4.83
2023-09-21T15:04:46.805Z,1.73
2023-09-21T15:07:14.000Z,2.37
2023-09-21T15:09:41.404Z,1.80
2023-09-21T15:12:08.503Z,2.20
2023-09-21T15:14:35.421Z,5.60
2023-09-21T15:17:02.501Z,2.43
2023-09-21T15:19:30.294Z,1.50
2023-09-21T15:21:57.482Z,6.30
2023-09-21T15:24:24.700Z,2.73
2023-09-21T15:26:52.213Z,1.80
2023-09-21T15:29:19.153Z,2.67
2023-09-21T15:31:46.216Z,2.10
2023-09-21T15:34:13.361Z,2.77
2023-09-21T15:36:42.838Z,2.77
2023-09-21T15:39:10.250Z,5.10
2023-09-21T15:41:37.451Z,4.73
2023-09-21T15:44:04.590Z,7.63
2023-09-21T15:46:31.557Z,2.47
2023-09-21T15:48:58.579Z,3.90
2023-09-21T15:51:25.800Z,4.50
2023-09-21T15:53:52.620Z,2.53
2023-09-21T15:56:19.403Z,2.90
2023-09-21T15:58:46.701Z,2.23
2023-09-21T16:01:14.379Z,1.70
2023-09-21T16:03:42.024Z,5.60
2023-09-21T16:06:09.731Z,4.00
2023-09-21T16:08:46.356Z,3.27
2023-09-21T16:11:13.933Z,4.03
2023-09-21T16:13:40.735Z,3.67
2023-09-21T16:16:07.854Z,2.53
2023-09-21T16:18:34.779Z,4.20
2023-09-21T16:21:01.752Z,4.60
2023-09-21T16:23:31.060Z,4.37
2023-09-21T16:25:59.670Z,3.53
2023-09-21T16:28:28.268Z,4.33
2023-09-21T16:30:55.640Z,3.10
2023-09-21T16:33:24.228Z,2.73
2023-09-21T16:35:52.381Z,2.80
2023-09-21T16:38:19.267Z,3.20
2023-09-21T16:40:46.217Z,4.20
2023-09-21T16:58:38.761Z,3.63
2023-09-21T17:05:35.174Z,4.50
2023-09-21T18:58:28.891Z,5.30
2023-09-21T19:00:56.754Z,4.23
2023-09-21T19:03:24.022Z,3.73
2023-09-21T19:05:50.992Z,4.90
2023-09-21T19:08:17.892Z,7.37
2023-09-21T19:10:45.823Z,5.50
2023-09-21T19:13:12.741Z,5.13
2023-09-21T19:15:39.692Z,6.53
2023-09-21T19:18:07.765Z,4.10
2023-09-21T19:20:34.752Z,4.90
2023-09-21T19:23:02.933Z,3.43
2023-09-21T19:25:30.092Z,4.23
2023-09-21T19:27:56.961Z,4.97
2023-09-21T19:30:24.196Z,6.77
2023-09-21T19:32:51.809Z,4.80
2023-09-21T19:35:18.815Z,3.60
2023-09-21T19:37:49.203Z,4.03
2023-09-21T19:40:16.215Z,5.10
2023-09-21T19:42:43.285Z,7.23
2023-09-21T19:45:10.284Z,4.00
2023-09-21T19:47:37.166Z,4.27
2023-09-21T19:50:05.431Z,4.73
2023-09-21T19:52:32.324Z,4.40
2023-09-21T19:54:59.306Z,5.73
2023-09-21T19:57:29.062Z,5.30
2023-09-21T19:59:58.912Z,3.90
2023-09-21T20:02:26.071Z,3.57
2023-09-21T20:04:53.813Z,4.70
2023-09-21T20:07:20.708Z,3.77
2023-09-21T20:09:47.639Z,4.60
2023-09-21T20:12:14.753Z,10.00
2023-09-21T20:14:41.772Z,5.17
2023-09-21T20:17:08.687Z,3.70
2023-09-21T20:19:35.899Z,4.70
2023-09-21T20:22:04.283Z,4.70
2023-09-21T20:24:31.097Z,3.43
2023-09-21T20:26:58.076Z,3.37
2023-09-21T20:29:25.010Z,3.27
2023-09-21T20:31:52.210Z,3.57
2023-09-21T20:34:19.298Z,3.60
2023-09-21T20:36:46.302Z,3.03
2023-09-21T20:39:14.459Z,3.93
2023-09-21T20:41:41.732Z,6.27
2023-09-21T20:44:09.376Z,4.50
2023-09-21T20:46:37.166Z,3.80
2023-09-21T20:49:04.849Z,3.40
2023-09-21T20:51:31.656Z,3.63
2023-09-21T20:53:58.475Z,3.40
2023-09-21T20:56:25.217Z,3.90
2023-09-21T20:58:52.056Z,3.10
2023-09-21T21:01:18.809Z,3.20
2023-09-21T21:03:45.871Z,2.63
2023-09-21T21:06:13.577Z,3.60
2023-09-21T21:08:40.384Z,2.60
2023-09-21T21:11:07.164Z,3.77
2023-09-21T21:13:33.999Z,2.30
2023-09-21T21:16:00.909Z,2.67
2023-09-21T21:18:27.897Z,1.70
2023-09-21T21:20:54.918Z,2.80
2023-09-21T21:23:21.760Z,3.17
2023-09-21T21:25:48.591Z,3.13
2023-09-21T21:28:15.390Z,2.27
2023-09-21T21:30:42.416Z,2.87
2023-09-21T21:33:09.475Z,2.80
2023-09-21T21:35:36.812Z,2.60
2023-09-21T21:38:03.887Z,6.00
2023-09-21T21:40:30.937Z,3.83
2023-09-21T21:42:57.767Z,2.13
2023-09-21T21:45:24.766Z,3.97
2023-09-21T21:47:51.688Z,2.57
2023-09-21T21:50:18.599Z,2.80
2023-09-21T21:52:45.683Z,2.53
2023-09-21T21:55:12.534Z,2.10
2023-09-21T21:57:41.192Z,2.67
2023-09-21T22:00:27.418Z,2.37
2023-09-21T22:02:58.438Z,2.83
2023-09-21T22:05:29.961Z,3.40
2023-09-21T22:07:58.356Z,2.33
2023-09-21T22:10:25.595Z,1.50
2023-09-21T22:12:53.966Z,1.70
2023-09-21T22:15:21.457Z,1.30
2023-09-21T22:17:48.623Z,1.67
2023-09-21T22:20:17.047Z,1.30
2023-09-21T22:22:47.504Z,1.20
2023-09-21T22:25:14.822Z,1.73
2023-09-21T22:27:42.887Z,1.27
2023-09-21T22:30:11.566Z,1.27
2023-09-21T22:32:38.763Z,1.20
2023-09-21T22:35:06.880Z,1.60
2023-09-21T22:37:35.898Z,1.47
2023-09-21T22:40:06.250Z,1.37
2023-09-21T22:42:46.377Z,1.57
2023-09-21T22:45:17.101Z,1.30
2023-09-21T22:47:44.674Z,3.13
2023-09-21T22:50:16.867Z,2.20
2023-09-21T22:52:49.710Z,0.90
2023-09-21T22:55:20.720Z,1.33
2023-09-21T22:57:48.044Z,0.70
2023-09-21T23:00:19.514Z,0.70
2023-09-21T23:02:47.300Z,0.57
2023-09-21T23:05:14.624Z,0.60
2023-09-21T23:07:44.224Z,0.60
2023-09-21T23:10:15.709Z,0.80
2023-09-21T23:12:43.944Z,0.70
2023-09-21T23:15:15.929Z,1.10
2023-09-21T23:17:44.120Z,0.97
2023-09-21T23:20:22.323Z,1.63
2023-09-21T23:22:52.861Z,0.80
2023-09-21T23:25:19.782Z,0.57
2023-09-21T23:27:46.694Z,1.17
2023-09-21T23:30:13.798Z,1.03
2023-09-21T23:32:41.583Z,0.67
2023-09-21T23:35:09.948Z,0.70
2023-09-21T23:37:39.166Z,0.87
2023-09-21T23:40:09.830Z,0.67
2023-09-21T23:42:41.848Z,1.20
2023-09-21T23:45:14.040Z,0.60
2023-09-21T23:47:41.990Z,1.17
2023-09-21T23:50:12.897Z,1.57
2023-09-21T23:52:41.119Z,1.57
2023-09-21T23:55:11.048Z,0.73
2023-09-21T23:57:39.020Z,0.80
